createdAt,value
2024-04-30T00:02:04.084Z,56.88
2024-04-30T00:04:32.492Z,57.47
2024-04-30T00:07:00.530Z,58.35
2024-04-30T00:09:28.471Z,57.08
2024-04-30T00:11:56.486Z,57.21
2024-04-30T00:14:24.393Z,58.65
2024-04-30T00:16:52.526Z,57.85
2024-04-30T00:19:20.531Z,57.71
2024-04-30T00:21:48.639Z,57.66
2024-04-30T00:24:16.450Z,58.42
2024-04-30T00:26:44.366Z,58.05
2024-04-30T00:29:12.411Z,57.78
2024-04-30T00:31:41.527Z,57.90
2024-04-30T00:34:09.387Z,57.74
2024-04-30T00:36:38.862Z,58.58
2024-04-30T00:39:09.220Z,58.09
2024-04-30T00:41:37.136Z,57.92
2024-04-30T00:44:05.330Z,57.59
2024-04-30T00:46:35.960Z,58.23
2024-04-30T00:49:04.357Z,58.05
2024-04-30T00:51:32.893Z,58.51
2024-04-30T00:54:00.899Z,57.93
2024-04-30T00:56:28.882Z,57.99
2024-04-30T00:58:56.719Z,57.97
2024-04-30T01:01:24.758Z,58.45
2024-04-30T01:03:52.750Z,58.19
2024-04-30T01:06:22.188Z,57.68
2024-04-30T01:08:50.299Z,58.36
2024-04-30T01:11:18.318Z,58.81
2024-04-30T01:13:46.349Z,57.81
2024-04-30T01:16:14.384Z,58.32
2024-04-30T01:18:42.279Z,58.39
2024-04-30T01:21:10.327Z,58.15
2024-04-30T01:23:38.168Z,58.33
2024-04-30T01:26:06.111Z,58.84
2024-04-30T01:28:34.179Z,58.96
2024-04-30T01:31:02.252Z,58.23
2024-04-30T01:33:30.338Z,58.37
2024-04-30T01:35:59.151Z,58.37
2024-04-30T01:38:27.149Z,58.74
2024-04-30T01:40:54.977Z,58.64
2024-04-30T01:43:22.837Z,58.56
2024-04-30T01:45:50.794Z,58.69
2024-04-30T01:48:18.743Z,59.10
2024-04-30T01:50:46.603Z,58.80
2024-04-30T01:53:14.503Z,59.19
2024-04-30T01:55:42.447Z,59.14
2024-04-30T01:58:11.454Z,60.09
2024-04-30T02:00:39.611Z,59.30
2024-04-30T02:03:07.786Z,59.70
2024-04-30T02:05:35.920Z,59.12
2024-04-30T02:08:04.006Z,59.50
2024-04-30T02:10:31.869Z,59.48
2024-04-30T02:12:59.814Z,60.27
2024-04-30T02:15:27.672Z,60.03
2024-04-30T02:17:55.589Z,60.64
2024-04-30T02:20:23.457Z,61.87
2024-04-30T02:22:51.360Z,60.48
2024-04-30T02:25:19.301Z,59.79
2024-04-30T02:27:47.270Z,60.25
2024-04-30T02:30:35.102Z,60.71
2024-04-30T02:33:32.092Z,60.77
2024-04-30T02:36:00.323Z,60.55
2024-04-30T02:38:28.517Z,60.83
2024-04-30T02:40:56.457Z,60.74
2024-04-30T02:43:24.390Z,60.51
2024-04-30T02:45:52.259Z,60.07
2024-04-30T02:48:20.304Z,60.23
2024-04-30T02:50:48.146Z,60.16
2024-04-30T02:53:16.085Z,60.95
2024-04-30T02:55:43.900Z,60.39
2024-04-30T02:58:11.952Z,60.51
2024-04-30T03:00:39.966Z,60.81
2024-04-30T03:03:07.831Z,61.12
2024-04-30T03:05:36.021Z,61.62
2024-04-30T03:08:05.226Z,61.71
2024-04-30T03:10:33.186Z,61.67
2024-04-30T03:13:01.128Z,62.15
2024-04-30T03:15:29.114Z,61.51
2024-04-30T03:17:57.102Z,61.93
2024-04-30T03:20:25.194Z,62.65
2024-04-30T03:22:53.028Z,62.37
2024-04-30T03:25:20.965Z,62.12
2024-04-30T03:27:48.962Z,61.69
2024-04-30T03:30:16.899Z,61.85
2024-04-30T03:32:44.874Z,62.76
2024-04-30T03:35:12.972Z,61.95
2024-04-30T03:37:40.970Z,61.69
2024-04-30T03:40:09.207Z,62.11
2024-04-30T03:42:37.578Z,62.02
2024-04-30T03:45:06.260Z,61.49
2024-04-30T03:47:34.481Z,61.38
2024-04-30T03:50:02.864Z,61.55
2024-04-30T03:52:31.324Z,61.49
2024-04-30T03:54:59.570Z,61.49
2024-04-30T03:57:27.608Z,61.61
2024-04-30T03:59:55.512Z,62.05
2024-04-30T04:02:23.487Z,62.10
2024-04-30T04:04:51.470Z,61.83
2024-04-30T04:07:19.540Z,61.37
2024-04-30T04:09:47.406Z,61.90
2024-04-30T04:12:33.969Z,61.84
2024-04-30T04:15:02.002Z,61.13
2024-04-30T04:17:30.109Z,60.79
2024-04-30T04:19:58.659Z,61.37
2024-04-30T04:22:26.834Z,61.68
2024-04-30T04:24:54.649Z,61.12
2024-04-30T04:27:22.547Z,60.97
2024-04-30T04:29:50.357Z,61.06
2024-04-30T04:32:18.431Z,60.53
2024-04-30T04:34:46.373Z,60.66
2024-04-30T04:37:14.261Z,60.35
2024-04-30T04:39:42.279Z,60.15
2024-04-30T04:42:10.629Z,59.92
2024-04-30T04:44:38.701Z,59.81
2024-04-30T04:47:06.751Z,59.64
2024-04-30T04:49:34.572Z,59.38
2024-04-30T04:52:02.523Z,59.08
2024-04-30T04:54:30.719Z,58.55
2024-04-30T04:56:58.654Z,58.77
2024-04-30T04:59:26.935Z,58.33
2024-04-30T05:01:54.864Z,58.00
2024-04-30T05:04:23.291Z,57.03
2024-04-30T05:06:52.834Z,56.30
2024-04-30T05:09:27.938Z,54.76
2024-04-30T05:11:58.074Z,52.19
2024-04-30T05:14:25.971Z,50.16
2024-04-30T05:16:54.806Z,45.94
2024-04-30T05:19:22.840Z,43.37
2024-04-30T05:21:50.962Z,41.79
2024-04-30T05:24:18.885Z,41.25
2024-04-30T05:26:46.843Z,37.91
2024-04-30T05:29:14.675Z,35.65
2024-04-30T05:31:45.515Z,34.36
2024-04-30T05:34:13.528Z,33.69
2024-04-30T05:36:44.589Z,33.55
2024-04-30T05:39:12.645Z,32.13
2024-04-30T05:41:40.509Z,30.49
2024-04-30T05:44:11.429Z,28.81
2024-04-30T05:46:39.396Z,28.23
2024-04-30T05:49:07.531Z,26.86
2024-04-30T05:51:35.657Z,26.52
2024-04-30T05:54:03.547Z,25.61
2024-04-30T05:56:31.383Z,24.93
2024-04-30T05:58:59.337Z,23.87
2024-04-30T06:01:27.403Z,23.79
2024-04-30T06:03:55.364Z,23.65
2024-04-30T06:06:27.030Z,22.15
2024-04-30T06:08:55.000Z,22.00
2024-04-30T06:11:23.196Z,21.67
2024-04-30T06:13:51.495Z,20.58
2024-04-30T06:16:19.462Z,20.19
2024-04-30T06:18:47.829Z,20.40
2024-04-30T06:21:30.548Z,20.26
2024-04-30T06:23:59.414Z,20.53
2024-04-30T06:26:29.247Z,21.34
2024-04-30T06:28:59.842Z,21.70
2024-04-30T06:31:28.077Z,23.49
2024-04-30T06:33:56.072Z,24.27
2024-04-30T06:36:23.980Z,25.23
2024-04-30T06:38:51.806Z,26.01
2024-04-30T06:41:19.639Z,26.49
2024-04-30T06:43:47.723Z,27.09
2024-04-30T06:46:19.023Z,26.98
2024-04-30T06:48:49.069Z,26.46
2024-04-30T06:51:18.394Z,25.55
2024-04-30T06:53:46.266Z,24.58
2024-04-30T06:56:14.100Z,23.89
2024-04-30T06:58:41.998Z,23.10
2024-04-30T07:01:09.873Z,22.50
2024-04-30T07:03:37.839Z,22.31
2024-04-30T07:06:06.487Z,21.96
2024-04-30T07:08:34.317Z,21.80
2024-04-30T07:11:02.915Z,21.80
2024-04-30T07:13:31.401Z,21.87
2024-04-30T07:15:59.221Z,21.71
2024-04-30T07:18:27.722Z,21.34
2024-04-30T07:20:55.633Z,21.14
2024-04-30T07:23:23.433Z,21.43
2024-04-30T07:25:51.242Z,21.19
2024-04-30T07:28:19.389Z,20.82
2024-04-30T07:30:47.194Z,20.71
2024-04-30T07:33:15.227Z,20.80
2024-04-30T07:35:43.338Z,21.05
2024-04-30T07:38:17.546Z,20.51
2024-04-30T07:40:47.664Z,21.08
2024-04-30T07:43:15.491Z,21.26
2024-04-30T07:45:43.300Z,22.06
2024-04-30T07:48:11.168Z,22.69
2024-04-30T07:50:39.187Z,23.30
2024-04-30T07:53:07.008Z,23.60
2024-04-30T07:55:35.436Z,23.76
2024-04-30T07:58:03.793Z,23.65
2024-04-30T08:00:36.110Z,24.22
2024-04-30T08:03:06.853Z,25.09
2024-04-30T08:05:42.636Z,25.96
2024-04-30T08:08:13.580Z,25.86
2024-04-30T08:10:41.852Z,25.18
2024-04-30T08:13:09.813Z,24.18
2024-04-30T08:15:37.794Z,23.56
2024-04-30T08:18:05.821Z,23.24
2024-04-30T08:20:33.771Z,23.28
2024-04-30T08:23:01.622Z,22.10
2024-04-30T08:25:29.460Z,21.61
2024-04-30T08:27:57.290Z,21.27
2024-04-30T08:30:25.071Z,20.45
2024-04-30T08:32:53.631Z,21.12
2024-04-30T08:35:21.509Z,20.77
2024-04-30T08:37:54.958Z,20.56
2024-04-30T08:40:29.222Z,20.49
2024-04-30T08:42:59.981Z,20.32
2024-04-30T08:45:28.647Z,20.51
2024-04-30T08:48:01.175Z,20.55
2024-04-30T08:50:32.380Z,20.86
2024-04-30T08:53:04.670Z,20.71
2024-04-30T08:55:34.162Z,20.66
2024-04-30T08:58:02.472Z,20.69
2024-04-30T09:00:30.468Z,20.70
2024-04-30T09:03:02.790Z,20.62
2024-04-30T09:05:34.037Z,21.09
2024-04-30T09:08:03.768Z,21.54
2024-04-30T09:10:31.717Z,21.65
2024-04-30T09:13:00.094Z,21.38
2024-04-30T09:15:27.959Z,21.08
2024-04-30T09:18:08.267Z,21.16
2024-04-30T09:20:47.116Z,20.47
2024-04-30T09:23:26.367Z,20.62
2024-04-30T09:25:54.562Z,20.06
2024-04-30T09:28:23.954Z,19.08
2024-04-30T09:30:56.866Z,18.91
2024-04-30T09:33:26.776Z,19.25
2024-04-30T09:36:10.535Z,19.64
2024-04-30T09:38:43.904Z,18.68
2024-04-30T09:41:13.793Z,19.54
2024-04-30T09:43:43.468Z,19.53
2024-04-30T09:46:15.660Z,19.70
2024-04-30T09:48:44.887Z,19.93
2024-04-30T09:51:14.225Z,19.90
2024-04-30T09:53:46.988Z,20.10
2024-04-30T09:56:14.987Z,19.96
2024-04-30T09:58:43.260Z,20.08
2024-04-30T10:01:15.222Z,20.28
2024-04-30T10:03:46.201Z,20.36
2024-04-30T10:06:17.548Z,20.73
2024-04-30T10:08:45.791Z,20.36
2024-04-30T10:11:13.783Z,20.77
2024-04-30T10:13:52.359Z,20.81
2024-04-30T10:16:22.061Z,21.28
2024-04-30T10:19:01.589Z,20.99
2024-04-30T10:21:36.611Z,20.84
2024-04-30T10:24:24.099Z,20.74
2024-04-30T10:26:52.640Z,21.72
2024-04-30T10:29:20.585Z,21.29
2024-04-30T10:31:49.397Z,21.26
2024-04-30T10:34:19.612Z,21.62
2024-04-30T10:36:52.006Z,21.57
2024-04-30T10:39:26.448Z,21.40
2024-04-30T10:41:54.647Z,21.48
2024-04-30T10:44:22.884Z,21.92
2024-04-30T10:46:50.889Z,22.20
2024-04-30T10:49:21.496Z,21.87
2024-04-30T10:51:51.291Z,22.14
2024-04-30T10:54:19.646Z,22.02
2024-04-30T10:56:47.526Z,21.80
2024-04-30T10:59:15.368Z,21.92
2024-04-30T11:01:43.464Z,21.97
2024-04-30T11:04:12.842Z,22.20
2024-04-30T11:06:45.378Z,22.09
2024-04-30T11:09:18.337Z,21.93
2024-04-30T11:11:49.525Z,22.14
2024-04-30T11:14:22.172Z,22.11
2024-04-30T11:16:58.521Z,21.77
2024-04-30T11:19:26.415Z,21.02
2024-04-30T11:21:54.347Z,21.02
2024-04-30T11:24:22.823Z,21.51
2024-04-30T11:26:51.058Z,21.14
2024-04-30T11:31:50.132Z,21.73
2024-04-30T11:34:18.511Z,22.14
2024-04-30T11:36:47.468Z,22.14
2024-04-30T11:39:15.513Z,22.53
2024-04-30T11:41:49.201Z,23.02
2024-04-30T11:44:25.039Z,23.10
2024-04-30T11:46:54.837Z,22.26
2024-04-30T11:49:22.918Z,22.63
2024-04-30T11:51:50.962Z,23.03
2024-04-30T11:54:18.736Z,22.52
2024-04-30T11:56:46.672Z,22.65
2024-04-30T11:59:14.525Z,23.10
2024-04-30T12:01:42.330Z,23.31
2024-04-30T12:04:10.303Z,23.28
2024-04-30T12:06:39.167Z,23.38
2024-04-30T12:09:07.452Z,23.69
2024-04-30T12:11:39.040Z,23.77
2024-04-30T12:14:06.909Z,24.07
2024-04-30T12:16:34.783Z,24.19
2024-04-30T12:19:02.701Z,24.55
2024-04-30T12:21:30.544Z,24.71
2024-04-30T12:23:58.424Z,24.99
2024-04-30T12:26:26.259Z,25.17
2024-04-30T12:28:54.373Z,25.03
2024-04-30T12:31:22.198Z,25.27
2024-04-30T12:33:50.123Z,25.54
2024-04-30T12:36:17.956Z,25.38
2024-04-30T12:38:45.772Z,25.47
2024-04-30T12:41:13.771Z,25.83
2024-04-30T12:43:41.703Z,25.92
2024-04-30T12:46:09.759Z,25.69
2024-04-30T12:48:37.741Z,25.74
2024-04-30T12:51:05.637Z,25.33
2024-04-30T12:53:33.506Z,25.65
2024-04-30T12:56:03.219Z,25.92
2024-04-30T12:58:31.053Z,26.08
2024-04-30T13:00:58.945Z,26.13
2024-04-30T13:03:26.910Z,26.10
2024-04-30T13:05:54.884Z,26.39
2024-04-30T13:08:22.739Z,26.28
2024-04-30T13:10:50.739Z,26.41
2024-04-30T13:13:18.782Z,26.77
2024-04-30T13:15:46.617Z,26.82
2024-04-30T13:18:14.496Z,26.40
2024-04-30T13:20:42.341Z,26.63
2024-04-30T13:23:10.204Z,26.73
2024-04-30T13:25:38.043Z,26.78
2024-04-30T13:28:06.353Z,27.01
2024-04-30T13:30:34.387Z,27.02
2024-04-30T13:33:03.279Z,26.96
2024-04-30T13:35:31.221Z,26.87
2024-04-30T13:37:59.342Z,27.41
2024-04-30T13:40:27.236Z,27.41
2024-04-30T13:42:55.248Z,27.68
2024-04-30T13:45:23.083Z,27.61
2024-04-30T13:47:51.036Z,27.87
2024-04-30T13:50:19.010Z,27.98
2024-04-30T13:52:47.039Z,28.24
2024-04-30T13:55:15.423Z,28.39
2024-04-30T13:57:44.168Z,28.43
2024-04-30T14:00:12.294Z,28.17
2024-04-30T14:02:40.213Z,28.63
2024-04-30T14:05:08.302Z,28.87
2024-04-30T14:07:36.124Z,29.06
2024-04-30T14:10:04.551Z,28.99
2024-04-30T14:12:32.360Z,29.26
2024-04-30T14:15:00.282Z,29.79
2024-04-30T14:17:28.514Z,29.94
2024-04-30T14:19:56.448Z,30.04
2024-04-30T14:22:24.324Z,30.33
2024-04-30T14:24:52.190Z,30.65
2024-04-30T14:27:20.453Z,30.66
2024-04-30T14:29:48.386Z,31.14
2024-04-30T14:32:16.503Z,31.35
2024-04-30T14:34:44.440Z,31.39
2024-04-30T14:37:12.444Z,31.57
2024-04-30T14:39:40.294Z,31.36
2024-04-30T14:42:08.185Z,31.39
2024-04-30T14:44:36.092Z,31.17
2024-04-30T14:47:04.077Z,31.29
2024-04-30T14:49:32.013Z,31.51
2024-04-30T14:51:59.833Z,31.37
2024-04-30T14:54:27.610Z,31.46
2024-04-30T14:56:55.976Z,31.23
2024-04-30T14:59:23.989Z,31.80
2024-04-30T15:01:51.944Z,31.95
2024-04-30T15:04:20.009Z,31.87
2024-04-30T15:06:47.977Z,32.21
2024-04-30T15:09:15.907Z,32.23
2024-04-30T15:11:43.778Z,32.39
2024-04-30T15:14:11.904Z,32.59
2024-04-30T15:16:46.162Z,32.32
2024-04-30T15:19:14.162Z,32.16
2024-04-30T15:21:42.951Z,32.41
2024-04-30T15:24:10.843Z,32.71
2024-04-30T15:26:39.406Z,32.87
2024-04-30T15:29:07.238Z,33.16
2024-04-30T15:31:35.574Z,33.34
2024-04-30T15:34:03.387Z,33.50
2024-04-30T15:36:31.272Z,33.43
2024-04-30T15:38:59.192Z,33.77
2024-04-30T15:41:27.072Z,34.08
2024-04-30T15:43:54.922Z,34.12
2024-04-30T15:46:23.852Z,33.92
2024-04-30T15:48:53.279Z,34.00
2024-04-30T15:51:21.160Z,34.02
2024-04-30T15:53:49.075Z,33.88
2024-04-30T15:56:19.445Z,34.23
2024-04-30T15:58:48.840Z,34.23
2024-04-30T16:01:16.964Z,34.84
2024-04-30T16:03:45.283Z,35.06
2024-04-30T16:06:14.218Z,35.26
2024-04-30T16:08:42.200Z,35.49
2024-04-30T16:11:11.667Z,36.08
2024-04-30T16:13:43.404Z,35.94
2024-04-30T16:16:16.698Z,36.19
2024-04-30T16:18:47.808Z,36.43
2024-04-30T16:21:16.855Z,36.58
2024-04-30T16:23:44.823Z,37.01
2024-04-30T16:26:12.753Z,37.16
2024-04-30T16:28:44.505Z,37.14
2024-04-30T16:31:14.848Z,36.89
2024-04-30T16:33:43.632Z,36.80
2024-04-30T16:36:24.459Z,36.51
2024-04-30T16:38:52.822Z,36.17
2024-04-30T16:41:20.848Z,36.04
2024-04-30T16:43:48.691Z,35.98
2024-04-30T16:46:16.572Z,36.18
2024-04-30T16:48:44.698Z,36.34
2024-04-30T16:51:13.956Z,36.23
2024-04-30T16:53:43.379Z,36.36
2024-04-30T16:56:11.904Z,36.46
2024-04-30T16:58:39.730Z,36.63
2024-04-30T17:01:07.851Z,36.84
2024-04-30T17:03:40.819Z,36.98
2024-04-30T17:06:11.911Z,36.97
2024-04-30T17:08:41.455Z,37.19
2024-04-30T17:11:10.570Z,37.26
2024-04-30T17:13:45.226Z,37.19
2024-04-30T17:16:30.954Z,37.41
2024-04-30T17:18:58.826Z,37.33
2024-04-30T17:21:26.757Z,37.32
2024-04-30T17:23:56.059Z,37.34
2024-04-30T17:26:27.019Z,37.46
2024-04-30T17:28:55.814Z,37.54
2024-04-30T17:31:25.081Z,37.76
2024-04-30T17:33:56.716Z,37.81
2024-04-30T17:36:25.740Z,37.85
2024-04-30T17:38:53.779Z,38.16
2024-04-30T17:41:23.436Z,38.46
2024-04-30T17:43:51.910Z,38.53
2024-04-30T17:46:20.762Z,38.77
2024-04-30T17:48:49.573Z,38.73
2024-04-30T17:51:18.060Z,38.88
2024-04-30T17:53:46.313Z,39.13
2024-04-30T17:56:14.391Z,39.21
2024-04-30T17:58:43.530Z,39.37
2024-04-30T18:01:12.171Z,39.33
2024-04-30T18:03:49.794Z,39.61
2024-04-30T18:06:17.667Z,39.79
2024-04-30T18:08:47.308Z,39.72
2024-04-30T18:11:16.477Z,40.01
2024-04-30T18:13:45.126Z,39.87
2024-04-30T18:16:15.794Z,40.08
2024-04-30T18:18:43.719Z,39.70
2024-04-30T18:21:21.606Z,40.01
2024-04-30T18:23:49.612Z,39.70
2024-04-30T18:26:17.432Z,39.85
2024-04-30T18:28:54.704Z,40.20
2024-04-30T18:31:24.948Z,40.45
2024-04-30T18:33:53.863Z,40.94
2024-04-30T18:36:23.687Z,41.08
2024-04-30T18:38:52.263Z,41.70
2024-04-30T18:41:27.654Z,41.60
2024-04-30T18:43:59.096Z,41.87
2024-04-30T18:46:27.474Z,42.05
2024-04-30T18:48:55.723Z,43.45
2024-04-30T18:51:24.037Z,43.48
2024-04-30T18:53:51.909Z,43.60
2024-04-30T18:56:19.732Z,44.59
2024-04-30T18:58:48.453Z,44.23
2024-04-30T19:01:17.973Z,45.24
2024-04-30T19:03:48.520Z,45.18
2024-04-30T19:06:19.786Z,44.81
2024-04-30T19:08:47.695Z,45.24
2024-04-30T19:11:17.837Z,45.72
2024-04-30T19:13:46.196Z,45.75
2024-04-30T19:16:14.015Z,45.39
2024-04-30T19:18:42.051Z,47.07
2024-04-30T19:21:10.044Z,46.92
2024-04-30T19:23:37.896Z,46.14
2024-04-30T19:26:13.626Z,47.12
2024-04-30T19:28:41.506Z,47.32
2024-04-30T19:31:27.596Z,47.09
2024-04-30T19:33:55.599Z,47.66
2024-04-30T19:36:24.663Z,47.86
2024-04-30T19:38:52.656Z,48.98
2024-04-30T19:41:20.911Z,48.56
2024-04-30T19:43:48.847Z,48.58
2024-04-30T19:46:20.674Z,49.27
2024-04-30T19:48:51.541Z,49.77
2024-04-30T19:51:21.528Z,49.44
2024-04-30T19:53:49.747Z,50.83
2024-04-30T19:56:19.455Z,50.15
2024-04-30T19:58:54.689Z,50.46
2024-04-30T20:01:26.403Z,51.01
2024-04-30T20:03:57.128Z,50.33
2024-04-30T20:06:25.244Z,51.18
2024-04-30T20:08:53.343Z,50.93
2024-04-30T20:11:24.449Z,51.16
2024-04-30T20:13:53.363Z,50.98
2024-04-30T20:16:24.115Z,51.26
2024-04-30T20:18:52.056Z,49.83
2024-04-30T20:21:20.276Z,51.70
2024-04-30T20:23:48.658Z,50.43
2024-04-30T20:26:17.089Z,50.34
2024-04-30T20:28:45.174Z,49.49
2024-04-30T20:31:13.173Z,49.25
2024-04-30T20:33:41.381Z,49.98
2024-04-30T20:36:16.600Z,49.22
2024-04-30T20:38:44.614Z,49.85
2024-04-30T20:41:13.666Z,49.83
2024-04-30T20:43:41.596Z,49.85
2024-04-30T20:46:09.531Z,49.58
2024-04-30T20:48:37.825Z,49.68
2024-04-30T20:51:06.059Z,49.93
2024-04-30T20:53:34.092Z,50.20
2024-04-30T20:56:05.152Z,49.93
2024-04-30T20:58:33.157Z,50.61
2024-04-30T21:01:01.110Z,50.40
2024-04-30T21:03:31.638Z,50.22
2024-04-30T21:06:00.718Z,50.23
2024-04-30T21:08:28.699Z,50.06
2024-04-30T21:10:56.544Z,50.12
2024-04-30T21:13:24.585Z,50.12
2024-04-30T21:15:52.442Z,49.77
2024-04-30T21:18:20.484Z,49.95
2024-04-30T21:20:48.492Z,50.21
2024-04-30T21:23:16.319Z,50.00
2024-04-30T21:25:44.243Z,50.07
2024-04-30T21:28:12.260Z,49.95
2024-04-30T21:30:41.326Z,49.63
2024-04-30T21:33:09.596Z,49.54
2024-04-30T21:35:40.712Z,49.85
2024-04-30T21:38:08.871Z,49.98
2024-04-30T21:40:36.880Z,49.97
2024-04-30T21:43:05.027Z,50.48
2024-04-30T21:45:33.012Z,50.39
2024-04-30T21:48:00.977Z,51.23
2024-04-30T21:50:29.082Z,50.92
2024-04-30T21:52:57.070Z,50.60
2024-04-30T21:55:24.931Z,51.15
2024-04-30T21:57:52.862Z,51.12
2024-04-30T22:00:20.859Z,51.27
2024-04-30T22:02:49.118Z,51.60
2024-04-30T22:05:17.158Z,51.38
2024-04-30T22:07:45.239Z,52.07
2024-04-30T22:10:13.177Z,51.77
2024-04-30T22:12:41.295Z,51.84
2024-04-30T22:15:09.288Z,52.32
2024-04-30T22:17:37.365Z,52.22
2024-04-30T22:20:08.206Z,53.05
2024-04-30T22:22:35.956Z,53.52
2024-04-30T22:25:04.534Z,52.88
2024-04-30T22:27:32.514Z,52.96
2024-04-30T22:30:08.797Z,53.18
2024-04-30T22:32:45.311Z,53.52
2024-04-30T22:35:13.544Z,53.50
2024-04-30T22:37:41.391Z,53.79
2024-04-30T22:40:09.630Z,54.01
2024-04-30T22:42:37.885Z,53.41
2024-04-30T22:45:06.203Z,53.24
2024-04-30T22:47:34.307Z,54.91
2024-04-30T22:50:02.672Z,54.41
2024-04-30T22:52:30.564Z,54.28
2024-04-30T22:54:58.898Z,54.99
2024-04-30T22:57:26.951Z,54.21
2024-04-30T22:59:54.997Z,54.47
2024-04-30T23:02:23.240Z,55.07
2024-04-30T23:04:51.155Z,54.21
2024-04-30T23:07:19.142Z,54.75
2024-04-30T23:09:47.219Z,55.80
2024-04-30T23:12:16.052Z,55.66
2024-04-30T23:14:44.091Z,56.03
2024-04-30T23:17:12.218Z,55.79
2024-04-30T23:19:40.283Z,55.69
2024-04-30T23:22:08.278Z,56.30
2024-04-30T23:24:36.208Z,55.43
2024-04-30T23:27:05.212Z,55.51
2024-04-30T23:29:33.713Z,56.51
2024-04-30T23:32:01.617Z,56.32
2024-04-30T23:34:29.634Z,55.18
2024-04-30T23:36:57.682Z,55.72
2024-04-30T23:39:25.949Z,55.71
2024-04-30T23:41:53.906Z,55.44
2024-04-30T23:44:21.747Z,56.70
2024-04-30T23:46:49.768Z,55.36
2024-04-30T23:49:17.706Z,56.42
2024-04-30T23:51:45.799Z,56.96
2024-04-30T23:54:15.329Z,56.38
2024-04-30T23:56:44.043Z,56.59
2024-04-30T23:59:12.261Z,57.15
